createdAt,value
2018-05-08T00:00:42.082Z,18.78
2018-05-08T00:03:09.515Z,18.74
2018-05-08T00:05:36.962Z,18.68
2018-05-08T00:08:04.446Z,18.66
2018-05-08T00:10:31.874Z,18.68
2018-05-08T00:12:59.341Z,18.62
2018-05-08T00:15:26.776Z,18.55
2018-05-08T00:17:54.166Z,18.44
2018-05-08T00:20:21.595Z,18.27
2018-05-08T00:22:49.015Z,18.07
2018-05-08T00:25:16.426Z,17.98
2018-05-08T00:27:43.881Z,17.99
2018-05-08T00:30:11.297Z,18.09
2018-05-08T00:32:38.723Z,18.19
2018-05-08T00:35:06.118Z,18.23
2018-05-08T00:37:33.608Z,18.20
2018-05-08T00:40:01.002Z,18.23
2018-05-08T00:42:28.415Z,18.30
2018-05-08T00:44:55.884Z,18.36
2018-05-08T00:47:23.316Z,18.36
2018-05-08T00:49:50.873Z,18.41
2018-05-08T00:52:18.292Z,18.44
2018-05-08T00:55:07.547Z,18.40
2018-05-08T00:57:34.997Z,18.36
2018-05-08T01:00:02.419Z,18.31
2018-05-08T01:02:29.886Z,18.26
2018-05-08T01:04:57.308Z,18.15
2018-05-08T01:07:24.760Z,17.96
2018-05-08T01:09:52.983Z,17.78
2018-05-08T01:12:20.549Z,17.72
2018-05-08T01:14:47.986Z,17.66
2018-05-08T01:17:15.452Z,17.65
2018-05-08T01:19:42.926Z,17.70
2018-05-08T01:22:10.394Z,17.71
2018-05-08T01:24:38.567Z,17.76
2018-05-08T01:27:06.021Z,17.85
2018-05-08T01:29:33.635Z,17.96
2018-05-08T01:32:01.168Z,18.08
2018-05-08T01:34:28.636Z,18.17
2018-05-08T01:36:56.040Z,18.23
2018-05-08T01:39:23.443Z,18.27
2018-05-08T01:41:50.838Z,18.22
2018-05-08T01:44:18.272Z,18.24
2018-05-08T01:46:45.707Z,18.22
2018-05-08T01:49:13.130Z,18.21
2018-05-08T01:51:40.601Z,18.22
2018-05-08T01:54:08.023Z,18.26
2018-05-08T01:56:35.454Z,18.29
2018-05-08T01:59:03.075Z,18.27
2018-05-08T02:01:30.472Z,18.12
2018-05-08T02:03:57.920Z,18.01
2018-05-08T02:06:25.352Z,17.94
2018-05-08T02:08:52.792Z,17.91
2018-05-08T02:11:20.356Z,17.94
2018-05-08T02:13:48.595Z,17.89
2018-05-08T02:16:16.074Z,17.90
2018-05-08T02:18:43.528Z,17.92
2018-05-08T02:21:11.076Z,17.93
2018-05-08T02:23:38.530Z,17.92
2018-05-08T02:26:06.075Z,17.83
2018-05-08T02:28:33.521Z,17.75
2018-05-08T02:31:00.944Z,17.66
2018-05-08T02:33:28.347Z,17.59
2018-05-08T02:35:55.804Z,17.56
2018-05-08T02:38:23.270Z,17.48
2018-05-08T02:40:50.745Z,17.40
2018-05-08T02:43:18.171Z,17.32
2018-05-08T02:45:45.588Z,17.28
2018-05-08T02:48:13.052Z,17.10
2018-05-08T02:50:40.481Z,17.00
2018-05-08T02:53:07.914Z,17.00
2018-05-08T02:55:35.392Z,16.95
2018-05-08T02:58:02.943Z,16.93
2018-05-08T03:00:30.401Z,16.94
2018-05-08T03:02:57.876Z,16.93
2018-05-08T03:05:26.476Z,16.92
2018-05-08T03:07:54.000Z,16.93
2018-05-08T03:10:21.453Z,16.99
2018-05-08T03:12:48.941Z,17.09
2018-05-08T03:15:16.401Z,17.18
2018-05-08T03:17:44.057Z,17.20
2018-05-08T03:20:11.457Z,17.13
2018-05-08T03:22:38.902Z,16.94
2018-05-08T03:25:06.333Z,16.76
2018-05-08T03:27:33.801Z,16.78
2018-05-08T03:30:01.261Z,16.75
2018-05-08T03:32:28.687Z,16.76
2018-05-08T03:34:56.107Z,16.77
2018-05-08T03:37:23.556Z,16.75
2018-05-08T03:39:51.064Z,16.70
2018-05-08T03:42:18.537Z,16.79
2018-05-08T03:44:46.012Z,16.78
2018-05-08T03:47:13.885Z,16.72
2018-05-08T03:49:41.279Z,16.67
2018-05-08T03:52:08.812Z,16.68
2018-05-08T03:54:36.299Z,16.62
2018-05-08T03:57:04.544Z,16.56
2018-05-08T03:59:31.983Z,16.60
2018-05-08T04:02:11.155Z,16.68
2018-05-08T04:04:50.436Z,16.67
2018-05-08T04:07:29.551Z,16.67
2018-05-08T04:09:56.978Z,16.63
2018-05-08T04:12:24.385Z,16.54
2018-05-08T04:14:51.790Z,16.45
2018-05-08T04:17:19.232Z,16.40
2018-05-08T04:19:46.712Z,16.36
2018-05-08T04:22:14.119Z,16.29
2018-05-08T04:24:41.605Z,16.17
2018-05-08T04:27:09.027Z,16.17
2018-05-08T04:29:36.502Z,16.23
2018-05-08T04:32:03.905Z,16.35
2018-05-08T04:34:31.297Z,16.40
2018-05-08T04:36:58.754Z,16.33
2018-05-08T04:39:26.198Z,16.28
2018-05-08T04:41:53.632Z,16.28
2018-05-08T04:44:21.056Z,16.33
2018-05-08T04:46:48.485Z,16.35
2018-05-08T04:49:15.949Z,16.49
2018-05-08T04:51:43.369Z,16.59
2018-05-08T04:54:10.909Z,16.53
2018-05-08T04:56:38.322Z,16.51
2018-05-08T04:59:05.805Z,16.55
2018-05-08T05:01:33.604Z,16.57
2018-05-08T05:04:01.053Z,16.64
2018-05-08T05:06:28.459Z,16.74
2018-05-08T05:08:55.906Z,16.86
2018-05-08T05:11:23.368Z,16.97
2018-05-08T05:13:50.845Z,17.01
2018-05-08T05:16:18.286Z,16.98
2018-05-08T05:18:45.704Z,17.01
2018-05-08T05:21:13.142Z,17.10
2018-05-08T05:23:40.528Z,17.15
2018-05-08T05:26:07.964Z,17.21
2018-05-08T05:28:35.356Z,17.37
2018-05-08T05:31:02.794Z,17.43
2018-05-08T05:33:30.283Z,17.56
2018-05-08T05:35:57.707Z,17.66
2018-05-08T05:38:25.146Z,17.63
2018-05-08T05:40:52.737Z,17.61
2018-05-08T05:43:21.056Z,17.59
2018-05-08T05:45:48.594Z,17.35
2018-05-08T05:48:16.015Z,17.27
2018-05-08T05:50:43.634Z,17.47
2018-05-08T05:53:11.081Z,17.71
2018-05-08T05:55:38.539Z,17.88
2018-05-08T05:58:06.106Z,18.00
2018-05-08T06:00:33.556Z,17.96
2018-05-08T06:03:01.055Z,18.05
2018-05-08T06:05:28.561Z,18.10
2018-05-08T06:07:56.021Z,18.15
2018-05-08T06:10:23.457Z,18.21
2018-05-08T06:12:50.943Z,18.36
2018-05-08T06:15:18.401Z,18.30
2018-05-08T06:17:45.865Z,18.30
2018-05-08T06:20:13.289Z,18.26
2018-05-08T06:22:40.736Z,18.42
2018-05-08T06:25:08.175Z,18.67
2018-05-08T06:27:35.586Z,18.62
2018-05-08T06:30:03.069Z,18.79
2018-05-08T06:32:30.541Z,18.82
2018-05-08T06:34:57.968Z,18.63
2018-05-08T06:37:25.425Z,18.55
2018-05-08T06:39:52.909Z,18.73
2018-05-08T06:42:20.397Z,18.87
2018-05-08T06:44:47.798Z,18.97
2018-05-08T06:47:15.239Z,19.17
2018-05-08T06:49:42.684Z,19.23
2018-05-08T06:52:10.293Z,19.63
2018-05-08T06:54:37.760Z,19.91
2018-05-08T06:57:05.169Z,20.12
2018-05-08T06:59:33.225Z,20.43
2018-05-08T07:02:00.606Z,20.85
2018-05-08T07:04:28.932Z,20.83
2018-05-08T07:06:56.335Z,21.12
2018-05-08T07:09:24.063Z,21.24
2018-05-08T07:11:51.528Z,21.57
2018-05-08T07:14:19.127Z,21.87
2018-05-08T07:16:46.581Z,22.39
2018-05-08T07:19:14.038Z,22.43
2018-05-08T07:21:41.501Z,22.57
2018-05-08T07:24:09.179Z,22.70
2018-05-08T07:26:36.579Z,22.96
2018-05-08T07:29:03.996Z,22.95
2018-05-08T07:31:32.022Z,22.88
2018-05-08T07:33:59.461Z,23.19
2018-05-08T07:36:27.189Z,23.47
2018-05-08T07:38:54.705Z,23.62
2018-05-08T07:41:22.124Z,23.70
2018-05-08T07:43:49.726Z,23.85
2018-05-08T07:46:17.167Z,24.39
2018-05-08T07:48:44.799Z,24.25
2018-05-08T07:51:12.492Z,24.14
2018-05-08T07:53:39.932Z,23.98
2018-05-08T07:56:07.459Z,24.51
2018-05-08T07:58:34.963Z,24.94
2018-05-08T08:01:02.404Z,24.69
2018-05-08T08:03:29.835Z,24.38
2018-05-08T08:05:57.272Z,24.22
2018-05-08T08:08:24.770Z,24.41
2018-05-08T08:10:52.213Z,25.09
2018-05-08T08:13:19.687Z,25.43
2018-05-08T08:15:47.121Z,25.56
2018-05-08T08:18:14.635Z,25.67
2018-05-08T08:20:43.027Z,25.74
2018-05-08T08:23:10.453Z,26.25
2018-05-08T08:25:37.914Z,26.60
2018-05-08T08:28:05.351Z,26.39
2018-05-08T08:30:32.786Z,26.12
2018-05-08T08:33:00.231Z,26.41
2018-05-08T08:35:28.084Z,26.54
2018-05-08T08:37:55.563Z,26.66
2018-05-08T08:40:23.101Z,26.74
2018-05-08T08:42:50.540Z,26.30
2018-05-08T08:45:18.016Z,25.57
2018-05-08T08:47:45.715Z,24.70
2018-05-08T08:50:13.182Z,24.46
2018-05-08T08:52:40.623Z,24.22
2018-05-08T08:55:08.031Z,23.98
2018-05-08T08:57:35.571Z,23.86
2018-05-08T09:00:03.049Z,24.13
2018-05-08T09:02:30.863Z,24.46
2018-05-08T09:04:58.329Z,24.65
2018-05-08T09:07:25.730Z,25.04
2018-05-08T09:09:53.162Z,24.79
2018-05-08T09:12:20.702Z,24.87
2018-05-08T09:14:48.207Z,24.58
2018-05-08T09:17:15.673Z,24.74
2018-05-08T09:19:43.177Z,24.98
2018-05-08T09:22:10.554Z,25.47
2018-05-08T09:24:38.028Z,25.93
2018-05-08T09:27:05.481Z,26.11
2018-05-08T09:29:32.987Z,26.55
2018-05-08T09:32:00.399Z,26.97
2018-05-08T09:34:27.977Z,27.12
2018-05-08T09:36:55.481Z,27.01
2018-05-08T09:39:22.883Z,26.97
2018-05-08T09:41:50.326Z,26.90
2018-05-08T09:44:17.752Z,26.49
2018-05-08T09:46:45.158Z,26.62
2018-05-08T09:49:12.624Z,26.88
2018-05-08T09:51:40.145Z,27.06
2018-05-08T09:54:07.692Z,26.94
2018-05-08T09:56:35.228Z,26.78
2018-05-08T09:59:02.724Z,26.66
2018-05-08T10:01:30.193Z,26.71
2018-05-08T10:03:57.680Z,26.72
2018-05-08T10:06:25.071Z,27.17
2018-05-08T10:08:52.532Z,27.40
2018-05-08T10:11:20.150Z,27.72
2018-05-08T10:13:47.638Z,27.95
2018-05-08T10:16:15.131Z,28.24
2018-05-08T10:18:42.632Z,28.17
2018-05-08T10:21:10.036Z,28.07
2018-05-08T10:23:37.449Z,28.05
2018-05-08T10:26:04.923Z,27.73
2018-05-08T10:28:32.629Z,27.86
2018-05-08T10:31:00.129Z,27.52
2018-05-08T10:33:27.539Z,27.58
2018-05-08T10:35:55.045Z,27.75
2018-05-08T10:38:22.481Z,28.14
2018-05-08T10:40:49.929Z,27.98
2018-05-08T10:43:17.391Z,27.85
2018-05-08T10:45:45.786Z,27.91
2018-05-08T10:48:13.311Z,27.73
2018-05-08T10:50:40.788Z,27.48
2018-05-08T10:53:08.219Z,27.29
2018-05-08T10:55:35.783Z,27.45
2018-05-08T10:58:03.215Z,27.79
2018-05-08T11:00:30.624Z,27.90
2018-05-08T11:02:58.085Z,27.85
2018-05-08T11:05:25.536Z,27.70
2018-05-08T11:07:53.040Z,27.60
2018-05-08T11:10:20.553Z,27.78
2018-05-08T11:12:47.972Z,28.01
2018-05-08T11:15:15.560Z,28.21
2018-05-08T11:17:43.016Z,28.18
2018-05-08T11:20:10.482Z,27.50
2018-05-08T11:22:37.977Z,27.34
2018-05-08T11:25:05.422Z,27.02
2018-05-08T11:27:32.872Z,26.86
2018-05-08T11:30:00.266Z,26.72
2018-05-08T11:32:27.701Z,26.44
2018-05-08T11:34:55.142Z,26.11
2018-05-08T11:37:22.688Z,26.35
2018-05-08T11:39:50.176Z,26.31
2018-05-08T11:42:17.733Z,25.84
2018-05-08T11:44:45.183Z,26.29
2018-05-08T11:47:12.652Z,27.44
2018-05-08T11:49:40.112Z,27.87
2018-05-08T11:52:07.527Z,28.11
2018-05-08T11:54:35.029Z,28.27
2018-05-08T11:57:02.544Z,28.32
2018-05-08T11:59:30.027Z,28.79
2018-05-08T12:01:57.489Z,29.29
2018-05-08T12:04:24.996Z,29.20
2018-05-08T12:06:52.656Z,29.09
2018-05-08T12:09:20.149Z,29.41
2018-05-08T12:11:47.633Z,29.87
2018-05-08T12:14:15.141Z,30.26
2018-05-08T12:16:42.577Z,29.92
2018-05-08T12:19:10.012Z,29.60
2018-05-08T12:21:37.488Z,29.42
2018-05-08T12:24:04.989Z,29.07
2018-05-08T12:26:32.693Z,29.32
2018-05-08T12:29:00.131Z,29.52
2018-05-08T12:31:27.759Z,29.27
2018-05-08T12:33:55.229Z,28.79
2018-05-08T12:36:22.713Z,28.66
2018-05-08T12:38:50.147Z,28.32
2018-05-08T12:41:17.633Z,28.20
2018-05-08T12:43:45.073Z,27.93
2018-05-08T12:46:12.481Z,27.55
2018-05-08T12:48:39.959Z,27.50
2018-05-08T12:51:07.416Z,27.55
2018-05-08T12:53:34.893Z,27.58
2018-05-08T12:56:02.337Z,27.40
2018-05-08T12:58:29.835Z,27.15
2018-05-08T13:00:57.273Z,27.13
2018-05-08T13:03:24.706Z,27.50
2018-05-08T13:05:52.112Z,27.80
2018-05-08T13:08:19.580Z,27.98
2018-05-08T13:10:47.063Z,27.93
2018-05-08T13:13:14.613Z,28.09
2018-05-08T13:15:42.058Z,28.42
2018-05-08T13:18:09.608Z,28.46
2018-05-08T13:20:37.085Z,28.43
2018-05-08T13:23:04.615Z,28.38
2018-05-08T13:25:32.107Z,28.31
2018-05-08T13:27:59.633Z,28.45
2018-05-08T13:30:27.058Z,28.66
2018-05-08T13:32:55.232Z,28.64
2018-05-08T13:35:22.699Z,28.77
2018-05-08T13:37:50.198Z,28.75
2018-05-08T13:40:17.595Z,28.68
2018-05-08T13:42:45.041Z,28.59
2018-05-08T13:45:12.472Z,28.55
2018-05-08T13:47:39.930Z,28.50
2018-05-08T13:50:07.451Z,28.49
2018-05-08T13:52:34.914Z,28.42
2018-05-08T13:55:02.513Z,28.20
2018-05-08T13:57:29.867Z,27.53
2018-05-08T13:59:57.333Z,27.10
2018-05-08T14:02:24.800Z,27.28
2018-05-08T14:04:52.217Z,27.41
2018-05-08T14:07:19.880Z,27.45
2018-05-08T14:09:47.344Z,27.51
2018-05-08T14:12:14.805Z,27.52
2018-05-08T14:14:42.290Z,27.81
2018-05-08T14:17:09.711Z,28.29
2018-05-08T14:19:37.168Z,28.79
2018-05-08T14:22:04.725Z,28.77
2018-05-08T14:24:32.204Z,28.49
2018-05-08T14:26:59.648Z,28.47
2018-05-08T14:29:27.083Z,28.87
2018-05-08T14:31:54.610Z,28.63
2018-05-08T14:34:22.023Z,27.87
2018-05-08T14:36:49.502Z,27.58
2018-05-08T14:39:16.973Z,27.01
2018-05-08T14:41:44.462Z,27.03
2018-05-08T14:44:11.884Z,26.68
2018-05-08T14:46:39.326Z,26.56
2018-05-08T14:49:06.789Z,26.35
2018-05-08T14:51:34.184Z,26.07
2018-05-08T14:54:01.682Z,25.78
2018-05-08T14:56:29.089Z,25.61
2018-05-08T14:58:56.573Z,25.52
2018-05-08T15:01:23.993Z,25.42
2018-05-08T15:03:51.425Z,25.37
2018-05-08T15:06:18.923Z,25.34
2018-05-08T15:08:46.435Z,25.28
2018-05-08T15:11:14.004Z,25.26
2018-05-08T15:13:41.470Z,25.23
2018-05-08T15:16:09.072Z,25.17
2018-05-08T15:18:36.500Z,25.13
2018-05-08T15:21:03.934Z,25.08
2018-05-08T15:23:31.437Z,25.02
2018-05-08T15:25:58.872Z,25.03
2018-05-08T15:28:26.314Z,25.14
2018-05-08T15:30:53.744Z,25.14
2018-05-08T15:33:21.196Z,25.07
2018-05-08T15:35:48.891Z,25.05
2018-05-08T15:38:16.372Z,25.05
2018-05-08T15:40:43.836Z,25.12
2018-05-08T15:43:11.268Z,25.09
2018-05-08T15:45:38.705Z,25.05
2018-05-08T15:48:06.104Z,24.99
2018-05-08T15:50:33.527Z,24.98
2018-05-08T15:53:00.961Z,25.04
2018-05-08T15:55:28.486Z,25.14
2018-05-08T15:57:55.975Z,25.17
2018-05-08T16:00:23.413Z,25.06
2018-05-08T16:02:50.936Z,24.83
2018-05-08T16:05:18.365Z,24.60
2018-05-08T16:07:45.883Z,24.51
2018-05-08T16:10:13.319Z,24.45
2018-05-08T16:12:40.753Z,24.46
2018-05-08T16:15:08.333Z,24.37
2018-05-08T16:17:35.921Z,24.45
2018-05-08T16:20:03.339Z,24.36
2018-05-08T16:22:30.782Z,24.18
2018-05-08T16:24:58.194Z,24.01
2018-05-08T16:27:25.718Z,23.83
2018-05-08T16:29:53.161Z,23.71
2018-05-08T16:32:20.596Z,23.70
2018-05-08T16:34:48.186Z,23.67
2018-05-08T16:37:15.644Z,23.72
2018-05-08T16:39:43.144Z,23.66
2018-05-08T16:42:10.589Z,23.60
2018-05-08T16:44:38.039Z,23.50
2018-05-08T16:47:05.572Z,23.49
2018-05-08T16:49:33.011Z,23.47
2018-05-08T16:52:00.441Z,23.49
2018-05-08T16:54:27.896Z,23.54
2018-05-08T16:56:55.656Z,23.58
2018-05-08T16:59:23.115Z,23.68
2018-05-08T17:01:50.577Z,23.64
2018-05-08T17:04:18.020Z,23.62
2018-05-08T17:06:45.436Z,23.65
2018-05-08T17:09:12.902Z,23.67
2018-05-08T17:11:40.321Z,23.64
2018-05-08T17:14:08.370Z,23.62
2018-05-08T17:16:35.807Z,23.54
2018-05-08T17:19:03.335Z,23.51
2018-05-08T17:21:30.763Z,23.43
2018-05-08T17:23:58.183Z,23.41
2018-05-08T17:26:25.612Z,23.44
2018-05-08T17:28:53.091Z,23.40
2018-05-08T17:31:21.985Z,23.40
2018-05-08T17:33:50.642Z,23.42
2018-05-08T17:36:18.064Z,23.44
2018-05-08T17:38:45.542Z,23.49
2018-05-08T17:41:13.012Z,23.44
2018-05-08T17:43:40.455Z,23.45
2018-05-08T17:46:07.928Z,23.49
2018-05-08T17:48:35.367Z,23.53
2018-05-08T17:51:02.804Z,23.44
2018-05-08T17:53:30.259Z,23.30
2018-05-08T17:55:57.708Z,23.29
2018-05-08T17:58:26.430Z,23.29
2018-05-08T18:00:53.861Z,23.16
2018-05-08T18:03:21.509Z,22.89
2018-05-08T18:05:48.963Z,22.72
2018-05-08T18:08:16.488Z,22.57
2018-05-08T18:10:43.954Z,22.38
2018-05-08T18:13:11.585Z,22.26
2018-05-08T18:15:39.020Z,22.35
2018-05-08T18:18:06.533Z,22.47
2018-05-08T18:20:33.982Z,22.26
2018-05-08T18:23:01.498Z,22.04
2018-05-08T18:25:29.552Z,21.90
2018-05-08T18:27:57.026Z,21.76
2018-05-08T18:30:24.427Z,21.84
2018-05-08T18:32:52.023Z,21.84
2018-05-08T18:35:19.414Z,21.82
2018-05-08T18:37:46.975Z,21.75
2018-05-08T18:40:14.416Z,21.76
2018-05-08T18:42:41.819Z,21.81
2018-05-08T18:45:09.286Z,21.85
2018-05-08T18:47:36.710Z,21.84
2018-05-08T18:50:04.217Z,21.72
2018-05-08T18:52:31.660Z,21.64
2018-05-08T18:54:59.119Z,21.61
2018-05-08T18:57:26.656Z,21.49
2018-05-08T18:59:54.062Z,21.44
2018-05-08T19:02:21.501Z,21.36
2018-05-08T19:04:48.961Z,21.19
2018-05-08T19:07:16.400Z,21.16
2018-05-08T19:09:43.889Z,21.00
2018-05-08T19:12:11.315Z,20.89
2018-05-08T19:14:38.797Z,20.86
2018-05-08T19:17:06.226Z,20.84
2018-05-08T19:19:39.353Z,20.75
2018-05-08T19:22:06.790Z,20.73
2018-05-08T19:24:34.250Z,20.74
2018-05-08T19:27:01.722Z,20.73
2018-05-08T19:29:34.790Z,20.82
2018-05-08T19:32:02.283Z,20.78
2018-05-08T19:34:35.100Z,20.75
2018-05-08T19:37:08.082Z,20.76
2018-05-08T19:39:35.533Z,20.68
2018-05-08T19:42:02.963Z,20.76
2018-05-08T19:44:30.387Z,20.75
2018-05-08T19:46:57.809Z,20.77
2018-05-08T19:49:25.316Z,20.73
2018-05-08T19:51:52.760Z,20.75
2018-05-08T19:54:20.193Z,20.84
2018-05-08T19:56:47.703Z,20.78
2018-05-08T19:59:15.086Z,20.83
2018-05-08T20:01:42.510Z,20.82
2018-05-08T20:04:09.947Z,20.81
2018-05-08T20:06:37.404Z,20.89
2018-05-08T20:09:04.858Z,20.89
2018-05-08T20:11:32.255Z,20.84
2018-05-08T20:13:59.717Z,20.76
2018-05-08T20:16:27.222Z,20.72
2018-05-08T20:18:54.670Z,20.68
2018-05-08T20:21:22.082Z,20.59
2018-05-08T20:23:49.474Z,20.57
2018-05-08T20:26:16.900Z,20.58
2018-05-08T20:28:44.368Z,20.51
2018-05-08T20:31:11.966Z,20.38
2018-05-08T20:33:39.391Z,20.31
2018-05-08T20:36:06.947Z,20.24
2018-05-08T20:38:34.434Z,20.11
2018-05-08T20:41:01.877Z,19.98
2018-05-08T20:43:29.300Z,20.00
2018-05-08T20:45:56.753Z,19.96
2018-05-08T20:48:24.406Z,19.98
2018-05-08T20:50:51.841Z,20.01
2018-05-08T20:53:19.230Z,20.10
2018-05-08T20:55:46.675Z,20.10
2018-05-08T20:58:14.154Z,20.08
2018-05-08T21:00:42.235Z,20.06
2018-05-08T21:03:09.710Z,20.04
2018-05-08T21:05:37.116Z,20.04
2018-05-08T21:08:04.519Z,20.05
2018-05-08T21:10:31.975Z,20.00
2018-05-08T21:12:59.428Z,20.05
2018-05-08T21:15:26.847Z,19.98
2018-05-08T21:17:54.487Z,19.91
2018-05-08T21:20:21.950Z,19.94
2018-05-08T21:22:49.340Z,20.03
2018-05-08T21:25:16.767Z,20.11
2018-05-08T21:27:49.688Z,20.25
2018-05-08T21:30:22.645Z,20.11
2018-05-08T21:32:50.034Z,20.16
2018-05-08T21:35:17.459Z,20.17
2018-05-08T21:37:44.932Z,20.21
2018-05-08T21:40:12.372Z,20.23
2018-05-08T21:42:39.790Z,20.20
2018-05-08T21:45:07.196Z,20.20
2018-05-08T21:47:34.634Z,20.23
2018-05-08T21:50:02.091Z,20.24
2018-05-08T21:52:29.528Z,20.22
2018-05-08T21:54:56.922Z,20.15
2018-05-08T21:57:24.406Z,20.10
2018-05-08T21:59:51.922Z,20.08
2018-05-08T22:02:19.421Z,19.93
2018-05-08T22:04:46.821Z,19.74
2018-05-08T22:07:14.237Z,19.73
2018-05-08T22:09:41.683Z,19.77
2018-05-08T22:12:09.211Z,19.82
2018-05-08T22:14:36.634Z,19.81
2018-05-08T22:17:04.150Z,19.84
2018-05-08T22:19:31.546Z,19.78
2018-05-08T22:21:59.036Z,19.58
2018-05-08T22:24:26.422Z,19.58
2018-05-08T22:26:53.909Z,19.52
2018-05-08T22:29:21.366Z,19.54
2018-05-08T22:31:48.791Z,19.60
2018-05-08T22:34:16.223Z,19.67
2018-05-08T22:36:43.674Z,19.68
2018-05-08T22:39:11.205Z,19.67
2018-05-08T22:41:38.640Z,19.69
2018-05-08T22:44:06.109Z,19.69
2018-05-08T22:46:33.502Z,19.65
2018-05-08T22:49:00.941Z,19.59
2018-05-08T22:51:28.336Z,19.49
2018-05-08T22:53:55.804Z,19.43
2018-05-08T22:56:23.225Z,19.40
2018-05-08T22:58:50.684Z,19.39
2018-05-08T23:01:18.144Z,19.26
2018-05-08T23:03:46.432Z,19.21
2018-05-08T23:06:13.872Z,19.23
2018-05-08T23:08:41.302Z,19.26
2018-05-08T23:11:08.735Z,19.24
2018-05-08T23:13:36.133Z,19.23
2018-05-08T23:16:03.571Z,19.19
2018-05-08T23:18:31.023Z,19.15
2018-05-08T23:20:58.498Z,19.12
2018-05-08T23:23:25.908Z,19.13
2018-05-08T23:25:53.350Z,19.12
2018-05-08T23:28:20.747Z,19.14
2018-05-08T23:30:48.213Z,19.14
2018-05-08T23:33:15.670Z,19.17
2018-05-08T23:35:43.121Z,19.20
2018-05-08T23:38:10.582Z,19.18
2018-05-08T23:40:38.016Z,19.11
2018-05-08T23:43:05.448Z,19.05
2018-05-08T23:45:32.841Z,19.01
2018-05-08T23:48:00.261Z,19.06
2018-05-08T23:50:27.718Z,19.02
2018-05-08T23:52:55.184Z,18.99
2018-05-08T23:55:22.639Z,18.94
2018-05-08T23:57:50.100Z,18.97
